createdAt,value
2023-03-12T00:01:37.858Z,1.98
2023-03-12T00:04:05.605Z,2.63
2023-03-12T00:06:33.481Z,2.22
2023-03-12T00:09:01.975Z,1.80
2023-03-12T00:11:31.139Z,1.73
2023-03-12T00:14:00.159Z,2.30
2023-03-12T00:16:28.492Z,2.13
2023-03-12T00:18:56.750Z,2.90
2023-03-12T00:21:24.394Z,2.40
2023-03-12T00:23:53.323Z,2.22
2023-03-12T00:26:21.452Z,2.45
2023-03-12T00:28:50.667Z,3.22
2023-03-12T00:31:19.455Z,2.15
2023-03-12T00:33:49.348Z,2.38
2023-03-12T00:36:17.459Z,2.92
2023-03-12T00:38:45.060Z,2.63
2023-03-12T00:41:12.808Z,2.25
2023-03-12T00:43:40.445Z,2.67
2023-03-12T00:46:09.426Z,2.53
2023-03-12T00:48:37.231Z,3.10
2023-03-12T00:51:05.038Z,2.10
2023-03-12T00:53:32.671Z,2.35
2023-03-12T00:56:00.514Z,3.00
2023-03-12T00:58:28.130Z,2.40
2023-03-12T01:00:56.156Z,2.10
2023-03-12T01:03:25.274Z,2.08
2023-03-12T01:05:55.664Z,2.28
2023-03-12T01:08:23.754Z,3.13
2023-03-12T01:10:51.430Z,2.50
2023-03-12T01:13:19.145Z,3.00
2023-03-12T01:15:46.738Z,2.45
2023-03-12T01:18:14.532Z,2.92
2023-03-12T01:20:43.613Z,2.10
2023-03-12T01:23:11.417Z,2.65
2023-03-12T01:25:39.102Z,2.55
2023-03-12T01:28:06.949Z,2.47
2023-03-12T01:30:34.628Z,2.75
2023-03-12T01:33:02.264Z,1.98
2023-03-12T01:35:30.041Z,2.38
2023-03-12T01:37:59.038Z,2.08
2023-03-12T01:40:29.003Z,2.45
2023-03-12T01:42:57.536Z,2.90
2023-03-12T01:45:43.656Z,2.92
2023-03-12T01:48:11.574Z,2.03
2023-03-12T01:50:39.500Z,2.50
2023-03-12T01:53:09.533Z,3.08
2023-03-12T01:55:37.204Z,2.55
2023-03-12T01:58:05.483Z,3.40
2023-03-12T02:00:33.177Z,2.67
2023-03-12T02:03:02.547Z,2.67
2023-03-12T02:05:33.320Z,3.30
2023-03-12T02:08:01.307Z,2.40
2023-03-12T02:10:30.360Z,2.00
2023-03-12T02:12:58.028Z,2.67
2023-03-12T02:15:25.869Z,2.67
2023-03-12T02:17:54.215Z,2.78
2023-03-12T02:20:24.674Z,2.50
2023-03-12T02:22:56.183Z,2.15
2023-03-12T02:25:30.912Z,2.50
2023-03-12T02:27:59.790Z,2.58
2023-03-12T02:30:28.282Z,2.20
2023-03-12T02:32:56.200Z,2.33
2023-03-12T02:35:23.987Z,1.83
2023-03-12T02:37:52.536Z,2.92
2023-03-12T02:40:24.691Z,2.15
2023-03-12T02:42:53.982Z,2.88
2023-03-12T02:45:21.785Z,2.78
2023-03-12T02:47:49.395Z,2.13
2023-03-12T02:50:17.309Z,2.63
2023-03-12T02:52:45.322Z,2.38
2023-03-12T02:55:13.219Z,2.05
2023-03-12T02:57:40.806Z,2.10
2023-03-12T03:00:12.383Z,2.50
2023-03-12T03:02:40.176Z,2.47
2023-03-12T03:05:08.853Z,2.70
2023-03-12T03:07:37.595Z,2.30
2023-03-12T03:10:05.517Z,2.58
2023-03-12T03:12:33.199Z,2.97
2023-03-12T03:15:00.827Z,2.47
2023-03-12T03:17:29.795Z,2.85
2023-03-12T03:19:57.527Z,2.92
2023-03-12T03:22:25.156Z,2.75
2023-03-12T03:24:54.088Z,4.03
2023-03-12T03:27:21.804Z,3.10
2023-03-12T03:29:52.864Z,3.25
2023-03-12T03:32:20.505Z,3.05
2023-03-12T03:34:50.190Z,3.22
2023-03-12T03:37:17.849Z,2.88
2023-03-12T03:39:45.571Z,3.10
2023-03-12T03:42:13.223Z,3.20
2023-03-12T03:44:40.808Z,3.10
2023-03-12T03:47:08.535Z,3.10
2023-03-12T03:49:36.137Z,3.65
2023-03-12T03:52:06.322Z,3.47
2023-03-12T03:54:34.060Z,3.55
2023-03-12T03:57:02.188Z,3.67
2023-03-12T03:59:29.858Z,3.63
2023-03-12T04:01:57.473Z,4.07
2023-03-12T04:04:25.162Z,3.85
2023-03-12T04:06:52.804Z,4.68
2023-03-12T04:09:21.778Z,4.10
2023-03-12T04:11:49.389Z,3.80
2023-03-12T04:14:17.716Z,3.47
2023-03-12T04:16:45.327Z,3.30
2023-03-12T04:19:13.015Z,4.25
2023-03-12T04:21:40.652Z,4.53
2023-03-12T04:24:08.951Z,3.97
2023-03-12T04:26:37.921Z,4.47
2023-03-12T04:29:05.550Z,4.60
2023-03-12T04:31:33.300Z,5.32
2023-03-12T04:34:00.955Z,3.72
2023-03-12T04:36:28.805Z,4.25
2023-03-12T04:38:57.665Z,4.82
2023-03-12T04:41:25.379Z,5.20
2023-03-12T04:43:54.506Z,5.28
2023-03-12T04:46:22.272Z,4.10
2023-03-12T04:48:49.942Z,4.93
2023-03-12T04:51:17.752Z,5.75
2023-03-12T04:53:45.478Z,5.32
2023-03-12T04:56:13.549Z,4.88
2023-03-12T04:58:41.220Z,6.03
2023-03-12T05:01:13.638Z,5.68
2023-03-12T05:03:41.460Z,5.60
2023-03-12T05:06:09.066Z,6.18
2023-03-12T05:08:36.696Z,6.85
2023-03-12T05:11:04.448Z,6.75
2023-03-12T05:13:32.062Z,6.68
2023-03-12T05:15:59.737Z,6.90
2023-03-12T05:18:28.756Z,7.15
2023-03-12T05:21:01.218Z,8.20
2023-03-12T05:23:29.382Z,7.60
2023-03-12T05:25:57.105Z,9.02
2023-03-12T05:28:28.401Z,8.63
2023-03-12T05:30:56.733Z,9.05
2023-03-12T05:33:24.830Z,10.15
2023-03-12T05:35:54.047Z,8.95
2023-03-12T05:38:21.702Z,9.35
2023-03-12T05:40:53.568Z,9.70
2023-03-12T05:43:21.661Z,9.32
2023-03-12T05:45:49.725Z,10.73
2023-03-12T05:48:20.883Z,9.38
2023-03-12T05:50:48.562Z,9.88
2023-03-12T05:53:17.615Z,11.27
2023-03-12T05:55:45.283Z,11.48
2023-03-12T05:58:12.916Z,9.82
2023-03-12T06:00:42.303Z,10.52
2023-03-12T06:03:10.111Z,11.38
2023-03-12T06:05:37.969Z,10.85
2023-03-12T06:08:06.554Z,10.32
2023-03-12T06:10:35.583Z,10.98
2023-03-12T06:13:03.163Z,12.13
2023-03-12T06:15:30.878Z,11.60
2023-03-12T06:17:58.504Z,11.35
2023-03-12T06:20:26.155Z,11.15
2023-03-12T06:22:53.840Z,10.60
2023-03-12T06:25:21.568Z,10.95
2023-03-12T06:27:50.569Z,10.52
2023-03-12T06:30:18.491Z,10.98
2023-03-12T06:32:46.229Z,11.48
2023-03-12T06:35:13.895Z,11.13
2023-03-12T06:37:41.535Z,10.85
2023-03-12T06:40:11.117Z,9.75
2023-03-12T06:42:38.751Z,9.43
2023-03-12T06:45:08.566Z,9.60
2023-03-12T06:47:36.457Z,11.40
2023-03-12T06:50:04.489Z,10.18
2023-03-12T06:52:32.134Z,13.38
2023-03-12T06:54:59.901Z,10.77
2023-03-12T06:57:28.432Z,10.75
2023-03-12T06:59:56.033Z,9.85
2023-03-12T07:02:25.049Z,10.35
2023-03-12T07:04:52.834Z,10.93
2023-03-12T07:07:20.583Z,9.68
2023-03-12T07:09:49.660Z,11.45
2023-03-12T07:12:17.295Z,10.65
2023-03-12T07:14:45.003Z,11.73
2023-03-12T07:17:12.752Z,12.38
2023-03-12T07:19:41.819Z,11.68
2023-03-12T07:22:11.360Z,11.23
2023-03-12T07:24:39.862Z,10.68
2023-03-12T07:27:10.554Z,11.70
2023-03-12T07:29:38.540Z,11.73
2023-03-12T07:32:06.447Z,11.13
2023-03-12T07:34:35.219Z,9.07
2023-03-12T07:37:05.109Z,9.63
2023-03-12T07:39:32.758Z,9.63
2023-03-12T07:42:00.757Z,9.23
2023-03-12T07:44:31.589Z,12.60
2023-03-12T07:47:04.794Z,10.48
2023-03-12T07:49:41.967Z,9.02
2023-03-12T07:52:11.563Z,12.45
2023-03-12T07:54:39.767Z,10.63
2023-03-12T07:57:07.815Z,8.32
2023-03-12T07:59:36.082Z,10.02
2023-03-12T08:02:03.963Z,8.43
2023-03-12T08:04:32.207Z,7.43
2023-03-12T08:07:00.039Z,9.38
2023-03-12T08:09:29.483Z,9.93
2023-03-12T08:11:57.210Z,7.22
2023-03-12T08:14:26.493Z,9.10
2023-03-12T08:16:54.269Z,9.80
2023-03-12T08:19:21.932Z,7.75
2023-03-12T08:21:50.114Z,7.15
2023-03-12T08:24:17.761Z,7.32
2023-03-12T08:26:46.997Z,5.90
2023-03-12T08:29:14.615Z,7.15
2023-03-12T08:31:57.401Z,9.52
2023-03-12T08:34:29.384Z,6.93
2023-03-12T08:36:57.535Z,5.75
2023-03-12T08:39:25.337Z,6.03
2023-03-12T08:41:55.489Z,9.05
2023-03-12T08:44:23.616Z,5.20
2023-03-12T08:46:51.531Z,5.68
2023-03-12T08:49:19.662Z,4.97
2023-03-12T08:51:47.347Z,7.82
2023-03-12T08:54:14.991Z,6.15
2023-03-12T08:56:43.731Z,6.18
2023-03-12T08:59:13.386Z,5.47
2023-03-12T09:01:43.801Z,5.90
2023-03-12T09:04:11.886Z,6.07
2023-03-12T09:06:39.633Z,6.07
2023-03-12T09:09:09.064Z,6.65
2023-03-12T09:11:37.343Z,7.95
2023-03-12T09:16:54.094Z,6.68
2023-03-12T09:19:21.839Z,6.53
2023-03-12T09:21:49.474Z,6.03
2023-03-12T09:24:17.170Z,4.97
2023-03-12T09:26:44.917Z,4.97
2023-03-12T09:29:12.646Z,6.10
2023-03-12T09:31:40.270Z,3.80
2023-03-12T09:34:09.301Z,5.63
2023-03-12T09:36:37.148Z,5.70
2023-03-12T09:39:05.102Z,5.70
2023-03-12T09:41:35.097Z,6.47
2023-03-12T09:44:04.895Z,7.15
2023-03-12T09:46:36.023Z,5.40
2023-03-12T09:49:06.705Z,5.88
2023-03-12T09:51:38.531Z,7.10
2023-03-12T09:54:08.124Z,4.60
2023-03-12T09:56:36.112Z,5.97
2023-03-12T09:59:04.136Z,4.88
2023-03-12T10:01:37.851Z,6.68
2023-03-12T10:04:08.493Z,5.22
2023-03-12T10:06:41.162Z,5.35
2023-03-12T10:09:17.983Z,5.03
2023-03-12T10:11:50.874Z,6.80
2023-03-12T10:14:24.232Z,5.05
2023-03-12T10:16:59.894Z,7.13
2023-03-12T10:19:42.657Z,6.50
2023-03-12T10:22:16.514Z,7.20
2023-03-12T10:24:52.570Z,5.85
2023-03-12T10:27:23.802Z,5.18
2023-03-12T10:29:53.481Z,4.55
2023-03-12T10:32:23.018Z,6.38
2023-03-12T10:34:53.696Z,4.85
2023-03-12T10:37:24.622Z,4.82
2023-03-12T10:39:52.859Z,5.20
2023-03-12T10:42:21.669Z,6.68
2023-03-12T10:44:52.166Z,5.07
2023-03-12T10:47:35.501Z,4.72
2023-03-12T10:50:13.567Z,5.25
2023-03-12T10:52:42.638Z,5.90
2023-03-12T10:55:20.656Z,6.75
2023-03-12T10:57:49.401Z,5.75
2023-03-12T11:00:20.958Z,5.28
2023-03-12T11:02:56.038Z,5.57
2023-03-12T11:05:25.194Z,6.25
2023-03-12T11:07:54.890Z,5.65
2023-03-12T11:10:23.836Z,8.75
2023-03-12T11:12:59.796Z,5.05
2023-03-12T11:15:29.159Z,5.38
2023-03-12T11:18:18.620Z,5.97
2023-03-12T11:20:46.424Z,4.82
2023-03-12T11:23:16.754Z,5.05
2023-03-12T11:25:44.475Z,5.55
2023-03-12T11:28:19.174Z,6.63
2023-03-12T11:30:47.052Z,5.53
2023-03-12T11:33:14.769Z,5.55
2023-03-12T11:35:47.053Z,5.43
2023-03-12T11:38:18.785Z,5.35
2023-03-12T11:40:56.697Z,4.50
2023-03-12T11:43:42.666Z,5.00
2023-03-12T11:46:21.006Z,5.38
2023-03-12T11:48:53.069Z,3.88
2023-03-12T11:51:27.906Z,4.25
2023-03-12T11:54:08.685Z,3.75
2023-03-12T11:56:38.617Z,3.63
2023-03-12T11:59:22.191Z,4.55
2023-03-12T12:01:56.368Z,4.13
2023-03-12T12:04:37.848Z,3.85
2023-03-12T12:07:10.332Z,4.22
2023-03-12T12:09:43.401Z,5.13
2023-03-12T12:12:20.537Z,4.32
2023-03-12T12:14:58.298Z,2.67
2023-03-12T12:17:32.792Z,4.05
2023-03-12T12:20:12.983Z,3.23
2023-03-12T12:22:45.964Z,4.78
2023-03-12T12:25:22.639Z,4.97
2023-03-12T12:27:55.557Z,4.47
2023-03-12T12:30:26.313Z,4.97
2023-03-12T12:33:00.661Z,4.78
2023-03-12T12:35:30.726Z,3.70
2023-03-12T12:37:59.817Z,4.53
2023-03-12T12:40:32.093Z,4.07
2023-03-12T12:43:02.886Z,4.72
2023-03-12T12:45:31.288Z,4.50
2023-03-12T12:48:01.697Z,3.53
2023-03-12T12:50:32.000Z,4.63
2023-03-12T12:53:03.871Z,4.57
2023-03-12T12:55:35.298Z,5.28
2023-03-12T12:58:05.906Z,4.18
2023-03-12T13:00:41.102Z,5.78
2023-03-12T13:03:13.017Z,4.72
2023-03-12T13:05:46.955Z,4.93
2023-03-12T13:08:29.390Z,5.03
2023-03-12T13:11:16.106Z,4.90
2023-03-12T13:13:46.970Z,4.53
2023-03-12T13:16:19.770Z,4.55
2023-03-12T13:18:57.254Z,4.63
2023-03-12T13:21:26.700Z,4.78
2023-03-12T13:23:58.719Z,6.25
2023-03-12T13:26:30.409Z,4.53
2023-03-12T13:29:11.796Z,3.65
2023-03-12T13:31:40.952Z,4.55
2023-03-12T13:34:26.234Z,4.10
2023-03-12T13:36:59.479Z,3.15
2023-03-12T13:39:32.019Z,2.75
2023-03-12T13:42:01.648Z,4.07
2023-03-12T13:44:37.841Z,4.18
2023-03-12T13:47:06.559Z,3.97
2023-03-12T13:49:41.819Z,3.25
2023-03-12T13:54:42.753Z,3.17
2023-03-12T13:57:26.170Z,4.07
2023-03-12T13:59:53.951Z,3.13
2023-03-12T14:02:24.718Z,4.05
2023-03-12T14:04:52.795Z,4.05
2023-03-12T14:07:38.761Z,4.63
2023-03-12T14:10:12.638Z,4.75
2023-03-12T14:12:45.393Z,3.70
2023-03-12T14:15:21.075Z,4.07
2023-03-12T14:17:54.696Z,3.83
2023-03-12T14:20:23.856Z,5.40
2023-03-12T14:22:53.661Z,4.05
2023-03-12T14:25:25.102Z,4.47
2023-03-12T14:27:54.321Z,3.33
2023-03-12T14:30:23.868Z,3.15
2023-03-12T14:32:54.549Z,4.28
2023-03-12T14:35:24.647Z,3.22
2023-03-12T14:37:55.809Z,3.78
2023-03-12T14:40:25.183Z,3.75
2023-03-12T14:42:55.613Z,3.40
2023-03-12T14:45:24.276Z,3.08
2023-03-12T14:47:54.021Z,3.53
2023-03-12T14:50:22.431Z,3.40
2023-03-12T14:52:50.095Z,3.90
2023-03-12T14:55:21.008Z,4.00
2023-03-12T14:57:48.741Z,4.53
2023-03-12T15:00:26.122Z,4.43
2023-03-12T15:02:54.441Z,3.42
2023-03-12T15:05:22.772Z,2.55
2023-03-12T15:07:51.243Z,5.15
2023-03-12T15:10:21.087Z,4.30
2023-03-12T15:12:49.175Z,3.78
2023-03-12T15:15:26.238Z,4.68
2023-03-12T15:17:55.530Z,4.18
2023-03-12T15:20:25.596Z,3.42
2023-03-12T15:22:53.733Z,3.72
2023-03-12T15:25:25.376Z,3.20
2023-03-12T15:28:03.189Z,2.80
2023-03-12T15:30:31.331Z,3.92
2023-03-12T15:33:07.899Z,4.60
2023-03-12T15:35:36.831Z,4.47
2023-03-12T15:38:04.811Z,3.60
2023-03-12T15:40:32.516Z,3.42
2023-03-12T15:43:03.224Z,4.05
2023-03-12T15:45:36.259Z,4.28
2023-03-12T15:48:05.131Z,3.97
2023-03-12T15:50:38.681Z,2.63
2023-03-12T15:53:07.661Z,4.25
2023-03-12T15:55:35.947Z,3.33
2023-03-12T15:58:03.968Z,4.50
2023-03-12T16:00:31.927Z,2.92
2023-03-12T16:03:00.397Z,3.13
2023-03-12T16:05:30.530Z,3.15
2023-03-12T16:08:01.577Z,3.65
2023-03-12T16:10:29.280Z,3.05
2023-03-12T16:13:00.984Z,3.85
2023-03-12T16:15:30.833Z,4.13
2023-03-12T16:17:58.494Z,2.65
2023-03-12T16:20:26.381Z,2.92
2023-03-12T16:22:54.946Z,3.67
2023-03-12T16:25:24.036Z,3.58
2023-03-12T16:27:52.677Z,4.00
2023-03-12T16:30:21.981Z,3.33
2023-03-12T16:32:49.994Z,2.95
2023-03-12T16:35:18.709Z,2.72
2023-03-12T16:37:46.678Z,3.42
2023-03-12T16:40:21.204Z,3.55
2023-03-12T16:43:02.688Z,3.65
2023-03-12T16:45:30.923Z,3.90
2023-03-12T16:48:00.258Z,3.75
2023-03-12T16:50:29.279Z,3.28
2023-03-12T16:52:57.686Z,3.58
2023-03-12T16:55:27.687Z,3.60
2023-03-12T16:57:56.592Z,3.58
2023-03-12T17:00:27.247Z,3.60
2023-03-12T17:02:57.896Z,3.95
2023-03-12T17:05:25.820Z,4.03
2023-03-12T17:07:53.493Z,3.55
2023-03-12T17:10:21.398Z,3.55
2023-03-12T17:12:49.443Z,3.30
2023-03-12T17:15:19.940Z,3.45
2023-03-12T17:17:48.930Z,2.58
2023-03-12T17:20:17.862Z,2.55
2023-03-12T17:22:46.231Z,3.88
2023-03-12T17:25:21.129Z,2.85
2023-03-12T17:27:48.920Z,3.83
2023-03-12T17:30:16.664Z,3.42
2023-03-12T17:32:44.437Z,3.38
2023-03-12T17:35:13.663Z,4.50
2023-03-12T17:37:42.053Z,3.13
2023-03-12T17:40:11.377Z,3.05
2023-03-12T17:42:39.669Z,4.15
2023-03-12T17:45:08.671Z,3.33
2023-03-12T17:47:39.877Z,4.30
2023-03-12T17:50:08.243Z,4.53
2023-03-12T17:52:37.352Z,4.13
2023-03-12T17:55:05.967Z,3.88
2023-03-12T17:57:33.835Z,4.68
2023-03-12T18:00:01.643Z,4.95
2023-03-12T18:02:29.612Z,4.40
2023-03-12T18:04:57.360Z,4.72
2023-03-12T18:07:25.000Z,5.40
2023-03-12T18:09:54.050Z,3.80
2023-03-12T18:12:22.111Z,4.22
2023-03-12T18:14:49.875Z,4.95
2023-03-12T18:17:17.821Z,4.22
2023-03-12T18:19:45.498Z,4.20
2023-03-12T18:22:16.933Z,3.85
2023-03-12T18:24:44.586Z,3.63
2023-03-12T18:27:13.706Z,4.28
2023-03-12T18:29:42.181Z,4.18
2023-03-12T18:32:10.080Z,3.20
2023-03-12T18:34:41.329Z,4.30
2023-03-12T18:37:08.989Z,3.00
2023-03-12T18:39:36.643Z,4.28
2023-03-12T18:42:04.599Z,3.55
2023-03-12T18:44:33.726Z,4.07
2023-03-12T18:47:01.363Z,3.22
2023-03-12T18:49:29.296Z,3.67
2023-03-12T18:51:56.951Z,3.55
2023-03-12T18:54:25.004Z,5.60
2023-03-12T18:56:52.835Z,3.70
2023-03-12T18:59:20.500Z,3.88
2023-03-12T19:01:49.864Z,3.97
2023-03-12T19:04:18.497Z,3.53
2023-03-12T19:06:51.114Z,4.80
2023-03-12T19:09:19.108Z,4.20
2023-03-12T19:11:47.352Z,3.80
2023-03-12T19:14:15.289Z,3.95
2023-03-12T19:16:43.797Z,3.35
2023-03-12T19:19:12.877Z,3.30
2023-03-12T19:21:40.579Z,4.85
2023-03-12T19:24:08.253Z,3.60
2023-03-12T19:26:36.722Z,3.03
2023-03-12T19:29:04.351Z,3.22
2023-03-12T19:31:32.073Z,3.58
2023-03-12T19:33:59.745Z,3.15
2023-03-12T19:36:28.850Z,3.28
2023-03-12T19:38:56.484Z,2.38
2023-03-12T19:41:24.114Z,3.90
2023-03-12T19:43:51.859Z,2.65
2023-03-12T19:46:19.532Z,2.88
2023-03-12T19:48:47.156Z,2.35
2023-03-12T19:51:17.210Z,2.50
2023-03-12T19:53:46.527Z,2.63
2023-03-12T19:56:14.411Z,3.15
2023-03-12T19:58:42.060Z,2.92
2023-03-12T20:01:09.773Z,2.60
2023-03-12T20:03:43.421Z,2.63
2023-03-12T20:06:12.318Z,2.88
2023-03-12T20:08:40.529Z,2.50
2023-03-12T20:11:11.387Z,2.47
2023-03-12T20:13:39.976Z,2.08
2023-03-12T20:16:08.468Z,3.10
2023-03-12T20:18:36.192Z,3.35
2023-03-12T20:21:03.961Z,2.20
2023-03-12T20:23:32.882Z,2.17
2023-03-12T20:26:00.990Z,2.75
2023-03-12T20:28:30.039Z,2.60
2023-03-12T20:30:57.697Z,2.50
2023-03-12T20:33:25.324Z,3.03
2023-03-12T20:35:53.038Z,2.20
2023-03-12T20:38:20.850Z,2.35
2023-03-12T20:40:48.552Z,2.88
2023-03-12T20:43:16.213Z,2.88
2023-03-12T20:45:48.074Z,2.75
2023-03-12T20:48:15.775Z,2.15
2023-03-12T20:50:43.861Z,3.65
2023-03-12T20:53:11.639Z,2.38
2023-03-12T20:55:39.499Z,2.38
2023-03-12T20:58:07.390Z,3.45
2023-03-12T21:00:35.805Z,2.35
2023-03-12T21:03:04.934Z,2.67
2023-03-12T21:05:32.557Z,2.33
2023-03-12T21:08:01.057Z,2.63
2023-03-12T21:10:31.404Z,2.42
2023-03-12T21:12:59.569Z,2.33
2023-03-12T21:15:27.189Z,2.30
2023-03-12T21:17:54.888Z,2.08
2023-03-12T21:20:23.962Z,2.35
2023-03-12T21:22:51.680Z,2.50
2023-03-12T21:25:19.482Z,2.88
2023-03-12T21:27:51.506Z,2.33
2023-03-12T21:30:19.716Z,3.08
2023-03-12T21:32:47.764Z,2.92
2023-03-12T21:35:15.583Z,2.30
2023-03-12T21:37:44.703Z,2.45
2023-03-12T21:40:13.054Z,3.10
2023-03-12T21:42:42.111Z,3.65
2023-03-12T21:45:11.139Z,2.80
2023-03-12T21:47:39.226Z,2.97
2023-03-12T21:50:07.289Z,2.40
2023-03-12T21:52:43.004Z,3.35
2023-03-12T21:55:13.027Z,2.97
2023-03-12T21:57:40.709Z,2.60
2023-03-12T22:00:12.424Z,2.92
2023-03-12T22:02:40.210Z,2.55
2023-03-12T22:05:09.123Z,2.53
2023-03-12T22:07:36.795Z,2.97
2023-03-12T22:10:07.325Z,2.67
2023-03-12T22:12:36.280Z,2.67
2023-03-12T22:15:04.491Z,2.85
2023-03-12T22:17:35.522Z,3.58
2023-03-12T22:20:05.124Z,3.47
2023-03-12T22:22:33.614Z,3.40
2023-03-12T22:25:01.272Z,3.42
2023-03-12T22:27:29.082Z,3.13
2023-03-12T22:29:58.136Z,3.47
2023-03-12T22:32:25.986Z,4.43
2023-03-12T22:34:53.666Z,2.55
2023-03-12T22:37:21.284Z,2.80
2023-03-12T22:39:48.920Z,2.95
2023-03-12T22:42:25.650Z,4.13
2023-03-12T22:44:53.531Z,2.97
2023-03-12T22:47:23.389Z,3.90
2023-03-12T22:49:52.561Z,3.53
2023-03-12T22:52:20.813Z,3.40
2023-03-12T22:54:48.490Z,2.75
2023-03-12T22:57:16.244Z,4.47
2023-03-12T22:59:43.837Z,3.40
2023-03-12T23:02:11.666Z,3.83
2023-03-12T23:04:40.737Z,3.42
2023-03-12T23:07:15.326Z,5.32
2023-03-12T23:09:44.622Z,3.47
2023-03-12T23:12:12.234Z,4.53
2023-03-12T23:14:39.886Z,3.83
2023-03-12T23:17:08.014Z,5.90
2023-03-12T23:19:36.493Z,3.60
2023-03-12T23:22:05.789Z,4.22
2023-03-12T23:24:33.400Z,4.50
2023-03-12T23:27:01.228Z,3.22
2023-03-12T23:29:33.529Z,3.88
2023-03-12T23:32:01.479Z,4.00
2023-03-12T23:34:29.173Z,5.20
2023-03-12T23:36:57.190Z,3.38
2023-03-12T23:39:27.461Z,4.63
2023-03-12T23:41:56.394Z,4.32
2023-03-12T23:44:24.292Z,4.78
2023-03-12T23:46:51.942Z,3.95
2023-03-12T23:49:19.616Z,4.93
2023-03-12T23:51:47.466Z,5.22
2023-03-12T23:54:16.220Z,4.25
2023-03-12T23:56:45.186Z,4.45
2023-03-12T23:59:12.924Z,3.80
